createdAt,value
2023-05-05T00:01:19.075Z,10.98
2023-05-05T00:03:46.083Z,12.93
2023-05-05T00:06:13.255Z,9.50
2023-05-05T00:08:42.000Z,16.35
2023-05-05T00:11:09.304Z,9.20
2023-05-05T00:13:36.293Z,12.45
2023-05-05T00:16:03.296Z,13.48
2023-05-05T00:18:30.531Z,7.35
2023-05-05T00:20:57.420Z,14.27
2023-05-05T00:23:24.252Z,9.48
2023-05-05T00:25:51.169Z,9.05
2023-05-05T00:28:18.330Z,12.05
2023-05-05T00:30:45.632Z,10.27
2023-05-05T00:33:12.807Z,10.60
2023-05-05T00:35:39.689Z,10.98
2023-05-05T00:38:07.884Z,7.50
2023-05-05T00:40:34.777Z,12.88
2023-05-05T00:43:03.136Z,8.75
2023-05-05T00:45:30.361Z,6.72
2023-05-05T00:47:59.187Z,10.55
2023-05-05T00:50:30.744Z,10.75
2023-05-05T00:53:03.309Z,10.30
2023-05-05T00:55:31.076Z,12.48
2023-05-05T00:58:02.783Z,14.88
2023-05-05T01:00:30.159Z,12.75
2023-05-05T01:02:57.500Z,12.35
2023-05-05T01:05:25.884Z,16.23
2023-05-05T01:08:02.978Z,15.25
2023-05-05T01:10:45.262Z,17.50
2023-05-05T01:13:44.643Z,17.23
2023-05-05T01:16:26.731Z,20.08
2023-05-05T01:19:41.309Z,12.65
2023-05-05T01:22:12.046Z,13.98
2023-05-05T01:25:00.145Z,17.67
2023-05-05T01:27:45.340Z,15.27
2023-05-05T01:30:26.396Z,18.85
2023-05-05T01:32:58.193Z,17.23
2023-05-05T01:35:30.152Z,16.90
2023-05-05T01:38:09.747Z,13.18
2023-05-05T01:40:45.354Z,17.63
2023-05-05T01:43:15.213Z,14.05
2023-05-05T01:45:45.243Z,18.85
2023-05-05T01:48:15.066Z,14.50
2023-05-05T01:50:43.026Z,16.60
2023-05-05T01:53:11.799Z,14.07
2023-05-05T01:55:39.875Z,14.45
2023-05-05T01:58:08.315Z,14.63
2023-05-05T02:00:35.525Z,16.20
2023-05-05T02:03:04.909Z,16.63
2023-05-05T02:05:34.144Z,14.63
2023-05-05T02:08:02.630Z,12.75
2023-05-05T02:10:30.562Z,16.65
2023-05-05T02:13:00.846Z,13.63
2023-05-05T02:15:29.026Z,13.70
2023-05-05T02:17:58.075Z,12.13
2023-05-05T02:20:26.812Z,13.20
2023-05-05T02:22:54.331Z,13.75
2023-05-05T02:25:22.262Z,13.40
2023-05-05T02:27:50.462Z,11.50
2023-05-05T02:30:19.852Z,16.75
2023-05-05T02:32:56.697Z,15.85
2023-05-05T02:35:29.797Z,12.52
2023-05-05T02:38:01.866Z,13.88
2023-05-05T02:40:31.786Z,17.08
2023-05-05T02:43:01.856Z,13.35
2023-05-05T02:45:29.041Z,10.32
2023-05-05T02:47:56.467Z,11.85
2023-05-05T02:50:23.323Z,16.08
2023-05-05T02:52:50.269Z,11.43
2023-05-05T02:55:17.272Z,12.38
2023-05-05T02:57:57.597Z,10.73
2023-05-05T03:01:22.091Z,9.93
2023-05-05T03:04:02.650Z,12.70
2023-05-05T03:06:32.046Z,12.00
2023-05-05T03:09:10.785Z,12.18
2023-05-05T03:11:41.095Z,10.15
2023-05-05T03:14:11.489Z,7.47
2023-05-05T03:16:40.990Z,8.90
2023-05-05T03:19:10.382Z,8.23
2023-05-05T03:21:38.846Z,11.63
2023-05-05T03:24:19.465Z,9.50
2023-05-05T03:26:48.606Z,8.00
2023-05-05T03:29:16.127Z,17.02
2023-05-05T03:31:43.070Z,10.32
2023-05-05T03:34:10.281Z,8.07
2023-05-05T03:36:37.983Z,8.80
2023-05-05T03:39:05.407Z,10.50
2023-05-05T03:41:32.264Z,7.90
2023-05-05T03:43:59.418Z,6.72
2023-05-05T03:46:26.426Z,7.95
2023-05-05T03:48:53.461Z,6.90
2023-05-05T03:51:20.381Z,9.32
2023-05-05T03:53:48.418Z,7.75
2023-05-05T03:56:15.251Z,7.10
2023-05-05T03:58:42.318Z,9.63
2023-05-05T04:01:10.691Z,7.75
2023-05-05T04:03:39.356Z,6.75
2023-05-05T04:06:06.692Z,10.38
2023-05-05T04:11:19.857Z,9.45
2023-05-05T04:16:32.117Z,10.75
2023-05-05T04:19:00.594Z,9.05
2023-05-05T04:21:27.990Z,8.50
2023-05-05T04:23:55.570Z,10.18
2023-05-05T04:26:22.483Z,10.48
2023-05-05T04:28:49.575Z,9.18
2023-05-05T04:31:16.544Z,9.82
2023-05-05T04:36:30.280Z,8.98
2023-05-05T04:38:58.511Z,7.22
2023-05-05T04:41:26.806Z,10.82
2023-05-05T04:43:55.972Z,9.32
2023-05-05T04:46:25.889Z,8.85
2023-05-05T04:48:53.117Z,7.38
2023-05-05T04:51:21.825Z,11.02
2023-05-05T04:53:48.882Z,12.57
2023-05-05T04:56:15.821Z,8.82
2023-05-05T04:58:42.737Z,11.82
2023-05-05T05:01:11.419Z,9.10
2023-05-05T05:03:38.426Z,14.35
2023-05-05T05:06:05.367Z,18.73
2023-05-05T05:08:32.582Z,14.50
2023-05-05T05:11:01.725Z,16.10
2023-05-05T05:13:30.711Z,12.10
2023-05-05T05:15:57.889Z,13.73
2023-05-05T05:18:25.945Z,14.23
2023-05-05T05:20:58.797Z,14.63
2023-05-05T05:23:25.705Z,14.88
2023-05-05T05:25:56.254Z,14.52
2023-05-05T05:28:23.922Z,16.93
2023-05-05T05:30:52.043Z,16.60
2023-05-05T05:33:20.156Z,14.43
2023-05-05T05:35:47.001Z,18.33
2023-05-05T05:38:13.781Z,16.77
2023-05-05T05:40:41.225Z,17.20
2023-05-05T05:43:09.680Z,18.70
2023-05-05T05:45:36.563Z,14.32
2023-05-05T05:48:03.790Z,19.05
2023-05-05T05:50:31.783Z,21.60
2023-05-05T05:52:58.602Z,16.95
2023-05-05T05:55:25.466Z,20.67
2023-05-05T05:57:52.344Z,16.88
2023-05-05T06:00:19.360Z,17.63
2023-05-05T06:02:46.107Z,17.58
2023-05-05T06:05:13.322Z,15.57
2023-05-05T06:07:40.155Z,19.83
2023-05-05T06:10:25.155Z,15.45
2023-05-05T06:12:54.414Z,18.17
2023-05-05T06:15:21.294Z,17.27
2023-05-05T06:17:48.211Z,12.63
2023-05-05T06:20:15.132Z,22.00
2023-05-05T06:22:42.174Z,16.23
2023-05-05T06:25:09.182Z,15.40
2023-05-05T06:27:36.379Z,15.68
2023-05-05T06:30:03.352Z,16.63
2023-05-05T06:32:30.169Z,11.20
2023-05-05T06:34:57.139Z,14.27
2023-05-05T06:37:24.247Z,19.00
2023-05-05T06:39:54.552Z,16.65
2023-05-05T06:42:22.367Z,15.70
2023-05-05T06:44:51.662Z,16.77
2023-05-05T06:47:21.394Z,12.77
2023-05-05T06:49:48.693Z,12.27
2023-05-05T06:52:16.533Z,11.40
2023-05-05T06:54:44.145Z,12.73
2023-05-05T06:57:14.285Z,12.57
2023-05-05T06:59:42.853Z,12.13
2023-05-05T07:02:10.146Z,10.20
2023-05-05T07:04:37.688Z,10.65
2023-05-05T07:07:05.998Z,8.80
2023-05-05T07:09:33.204Z,9.50
2023-05-05T07:12:00.412Z,10.60
2023-05-05T07:14:28.348Z,11.60
2023-05-05T07:16:55.361Z,10.85
2023-05-05T07:19:24.786Z,17.23
2023-05-05T07:21:52.448Z,13.40
2023-05-05T07:24:20.143Z,9.23
2023-05-05T07:26:50.292Z,7.22
2023-05-05T07:29:18.451Z,8.33
2023-05-05T07:31:46.261Z,7.13
2023-05-05T07:34:13.669Z,7.75
2023-05-05T07:36:45.530Z,9.88
2023-05-05T07:39:15.377Z,8.48
2023-05-05T07:41:43.673Z,7.10
2023-05-05T07:44:12.859Z,10.25
2023-05-05T07:46:40.421Z,5.18
2023-05-05T07:49:08.849Z,5.90
2023-05-05T07:51:35.794Z,8.35
2023-05-05T07:54:02.927Z,7.00
2023-05-05T07:56:42.324Z,7.97
2023-05-05T07:59:10.092Z,7.65
2023-05-05T08:01:43.158Z,8.50
2023-05-05T08:04:10.952Z,6.30
2023-05-05T08:06:44.976Z,5.32
2023-05-05T08:09:19.537Z,7.55
2023-05-05T08:11:47.173Z,7.47
2023-05-05T08:14:15.670Z,7.18
2023-05-05T08:16:44.757Z,6.63
2023-05-05T08:19:27.478Z,6.75
2023-05-05T08:21:56.175Z,5.35
2023-05-05T08:24:23.303Z,7.13
2023-05-05T08:26:50.372Z,4.10
2023-05-05T08:29:17.613Z,4.95
2023-05-05T08:31:46.756Z,6.07
2023-05-05T08:34:14.847Z,5.90
2023-05-05T08:36:41.871Z,4.03
2023-05-05T08:39:08.992Z,9.10
2023-05-05T08:41:36.102Z,16.73
2023-05-05T08:44:04.342Z,6.50
2023-05-05T08:46:33.050Z,5.57
2023-05-05T08:49:02.192Z,6.47
2023-05-05T08:51:37.151Z,28.80
2023-05-05T08:54:07.710Z,8.93
2023-05-05T08:56:42.538Z,7.50
2023-05-05T08:59:19.337Z,7.68
2023-05-05T09:01:47.681Z,10.50
2023-05-05T09:04:27.794Z,19.48
2023-05-05T09:06:57.412Z,11.57
2023-05-05T09:09:24.965Z,8.00
2023-05-05T09:11:54.093Z,4.63
2023-05-05T09:14:22.630Z,2.75
2023-05-05T09:17:08.580Z,2.85
2023-05-05T09:20:07.213Z,8.50
2023-05-05T09:22:41.649Z,4.78
2023-05-05T09:25:17.558Z,7.47
2023-05-05T09:27:47.784Z,6.32
2023-05-05T09:30:18.115Z,5.17
2023-05-05T09:32:47.631Z,7.47
2023-05-05T09:35:15.363Z,4.53
2023-05-05T09:37:43.277Z,4.00
2023-05-05T09:40:14.299Z,7.03
2023-05-05T09:42:44.934Z,6.95
2023-05-05T09:45:30.573Z,6.60
2023-05-05T09:48:00.890Z,9.15
2023-05-05T09:50:31.232Z,6.47
2023-05-05T09:53:08.522Z,3.77
2023-05-05T09:55:38.855Z,5.80
2023-05-05T09:58:26.976Z,6.00
2023-05-05T10:00:58.164Z,7.05
2023-05-05T10:03:26.190Z,16.70
2023-05-05T10:05:58.389Z,20.85
2023-05-05T10:08:34.483Z,14.20
2023-05-05T10:11:07.360Z,15.32
2023-05-05T10:13:40.130Z,16.20
2023-05-05T10:16:09.540Z,9.18
2023-05-05T10:18:40.242Z,11.05
2023-05-05T10:21:08.811Z,6.80
2023-05-05T10:23:46.434Z,14.60
2023-05-05T10:26:15.124Z,8.85
2023-05-05T10:28:46.256Z,5.18
2023-05-05T10:31:32.136Z,8.20
2023-05-05T10:34:09.069Z,7.55
2023-05-05T10:36:39.071Z,4.82
2023-05-05T10:39:10.873Z,5.88
2023-05-05T10:41:39.521Z,5.68
2023-05-05T10:44:10.817Z,11.07
2023-05-05T10:49:29.745Z,8.07
2023-05-05T10:52:02.449Z,6.07
2023-05-05T10:55:02.095Z,4.28
2023-05-05T10:57:31.201Z,6.88
2023-05-05T10:59:58.054Z,6.07
2023-05-05T11:02:30.758Z,11.25
2023-05-05T11:05:17.477Z,4.85
2023-05-05T11:07:46.635Z,7.28
2023-05-05T11:10:15.591Z,9.48
2023-05-05T11:12:52.248Z,9.40
2023-05-05T11:15:31.498Z,8.30
2023-05-05T11:18:05.892Z,8.95
2023-05-05T11:20:41.181Z,8.10
2023-05-05T11:23:08.151Z,15.38
2023-05-05T11:25:35.443Z,7.22
2023-05-05T11:28:13.008Z,9.48
2023-05-05T11:30:55.337Z,9.00
2023-05-05T11:33:52.088Z,8.52
2023-05-05T11:36:21.161Z,8.18
2023-05-05T11:39:02.604Z,6.05
2023-05-05T11:44:11.449Z,9.98
2023-05-05T11:46:43.371Z,12.35
2023-05-05T11:49:10.687Z,12.10
2023-05-05T11:51:38.113Z,9.60
2023-05-05T11:54:05.376Z,10.60
2023-05-05T11:56:35.504Z,9.93
2023-05-05T11:59:10.849Z,6.75
2023-05-05T12:01:41.923Z,9.75
2023-05-05T12:04:15.665Z,12.45
2023-05-05T12:06:45.790Z,8.57
2023-05-05T12:09:16.495Z,10.75
2023-05-05T12:11:53.962Z,8.20
2023-05-05T12:14:21.829Z,8.52
2023-05-05T12:17:08.533Z,9.15
2023-05-05T12:19:36.575Z,5.15
2023-05-05T12:22:04.811Z,6.38
2023-05-05T12:24:36.116Z,11.30
2023-05-05T12:27:09.682Z,8.65
2023-05-05T12:29:36.816Z,10.88
2023-05-05T12:32:04.682Z,7.68
2023-05-05T12:34:36.653Z,7.72
2023-05-05T12:37:04.768Z,7.30
2023-05-05T12:39:37.459Z,6.97
2023-05-05T12:42:05.637Z,5.72
2023-05-05T12:44:40.896Z,6.05
2023-05-05T12:47:07.849Z,5.70
2023-05-05T12:49:50.012Z,8.43
2023-05-05T12:52:17.519Z,9.40
2023-05-05T12:55:14.471Z,8.57
2023-05-05T12:58:05.446Z,6.00
2023-05-05T13:00:33.241Z,8.60
2023-05-05T13:03:00.592Z,7.65
2023-05-05T13:05:36.699Z,10.05
2023-05-05T13:08:03.963Z,8.88
2023-05-05T13:10:32.809Z,9.55
2023-05-05T13:13:00.050Z,10.25
2023-05-05T13:15:28.126Z,8.75
2023-05-05T13:18:01.915Z,9.98
2023-05-05T13:20:29.037Z,10.68
2023-05-05T13:22:56.359Z,16.73
2023-05-05T13:25:23.238Z,17.77
2023-05-05T13:27:50.668Z,8.75
2023-05-05T13:30:17.637Z,9.30
2023-05-05T13:32:44.544Z,12.10
2023-05-05T13:35:13.897Z,11.85
2023-05-05T13:37:42.653Z,10.02
2023-05-05T13:40:11.122Z,8.13
2023-05-05T13:42:37.934Z,10.77
2023-05-05T13:45:06.058Z,6.05
2023-05-05T13:47:34.633Z,10.52
2023-05-05T13:50:11.932Z,11.80
2023-05-05T13:52:40.440Z,5.70
2023-05-05T13:55:11.665Z,7.15
2023-05-05T13:57:40.208Z,8.82
2023-05-05T14:00:12.919Z,5.90
2023-05-05T14:02:39.977Z,6.63
2023-05-05T14:05:08.058Z,15.25
2023-05-05T14:07:34.954Z,8.20
2023-05-05T14:10:01.862Z,5.05
2023-05-05T14:12:28.692Z,8.85
2023-05-05T14:14:55.558Z,2.47
2023-05-05T14:17:23.182Z,9.00
2023-05-05T14:19:51.017Z,7.63
2023-05-05T14:22:18.029Z,5.28
2023-05-05T14:24:45.031Z,6.40
2023-05-05T14:27:16.959Z,6.35
2023-05-05T14:29:44.137Z,5.68
2023-05-05T14:32:11.328Z,4.15
2023-05-05T14:34:41.568Z,2.80
2023-05-05T14:37:08.484Z,1.95
2023-05-05T14:39:40.055Z,10.05
2023-05-05T14:42:07.280Z,5.88
2023-05-05T14:44:34.322Z,4.63
2023-05-05T14:47:01.197Z,7.38
2023-05-05T14:49:28.209Z,4.05
2023-05-05T14:51:56.691Z,4.88
2023-05-05T14:54:28.345Z,5.25
2023-05-05T14:56:56.550Z,3.90
2023-05-05T14:59:32.089Z,5.25
2023-05-05T15:02:00.112Z,5.50
2023-05-05T15:04:27.286Z,2.75
2023-05-05T15:06:54.152Z,2.70
2023-05-05T15:09:27.434Z,2.92
2023-05-05T15:11:54.364Z,3.95
2023-05-05T15:14:21.309Z,3.92
2023-05-05T15:16:48.344Z,1.92
2023-05-05T15:19:15.457Z,2.15
2023-05-05T15:21:44.179Z,4.50
2023-05-05T15:24:11.451Z,2.22
2023-05-05T15:26:38.581Z,2.88
2023-05-05T15:29:06.447Z,2.40
2023-05-05T15:31:33.461Z,1.25
2023-05-05T15:34:00.297Z,4.13
2023-05-05T15:36:28.817Z,3.20
2023-05-05T15:38:56.500Z,1.98
2023-05-05T15:41:26.827Z,1.52
2023-05-05T15:43:53.807Z,3.95
2023-05-05T15:46:24.129Z,2.70
2023-05-05T15:48:51.538Z,6.47
2023-05-05T15:51:19.515Z,4.00
2023-05-05T15:53:46.888Z,2.20
2023-05-05T15:56:14.181Z,2.17
2023-05-05T15:58:41.035Z,1.15
2023-05-05T16:01:08.116Z,1.38
2023-05-05T16:03:37.519Z,6.07
2023-05-05T16:06:06.455Z,4.07
2023-05-05T16:08:36.986Z,2.53
2023-05-05T16:11:27.188Z,1.85
2023-05-05T16:13:55.488Z,7.20
2023-05-05T16:16:27.798Z,3.05
2023-05-05T16:18:54.929Z,1.40
2023-05-05T16:21:22.993Z,2.17
2023-05-05T16:23:51.483Z,2.55
2023-05-05T16:26:18.563Z,2.97
2023-05-05T16:28:45.724Z,3.13
2023-05-05T16:31:16.086Z,1.50
2023-05-05T16:33:44.157Z,1.45
2023-05-05T16:36:13.536Z,0.98
2023-05-05T16:38:41.265Z,9.85
2023-05-05T16:41:16.151Z,7.22
2023-05-05T16:43:50.798Z,2.25
2023-05-05T16:46:18.497Z,2.40
2023-05-05T16:48:46.218Z,29.10
2023-05-05T16:51:14.230Z,11.07
2023-05-05T16:53:47.557Z,2.65
2023-05-05T16:56:17.244Z,3.80
2023-05-05T16:58:47.873Z,1.33
2023-05-05T17:01:15.702Z,1.00
2023-05-05T17:03:42.626Z,4.65
2023-05-05T17:06:09.919Z,4.38
2023-05-05T17:08:37.160Z,3.13
2023-05-05T17:11:04.309Z,4.13
2023-05-05T17:13:33.240Z,3.55
2023-05-05T17:16:01.131Z,5.95
2023-05-05T17:18:29.183Z,3.35
2023-05-05T17:20:56.507Z,3.42
2023-05-05T17:23:23.486Z,3.42
2023-05-05T17:25:55.732Z,5.03
2023-05-05T17:28:23.700Z,3.10
2023-05-05T17:30:52.022Z,3.28
2023-05-05T17:33:22.033Z,4.32
2023-05-05T17:35:57.417Z,1.92
2023-05-05T17:38:26.180Z,4.47
2023-05-05T17:40:53.306Z,4.15
2023-05-05T17:43:20.537Z,2.33
2023-05-05T17:45:47.696Z,3.10
2023-05-05T17:48:31.942Z,1.95
2023-05-05T17:50:59.362Z,5.50
2023-05-05T17:53:29.967Z,3.05
2023-05-05T17:56:00.068Z,3.05
2023-05-05T17:58:28.043Z,4.82
2023-05-05T18:00:55.009Z,4.85
2023-05-05T18:03:21.968Z,1.52
2023-05-05T18:05:53.480Z,1.98
2023-05-05T18:10:51.141Z,1.52
2023-05-05T18:13:22.118Z,3.28
2023-05-05T18:15:49.037Z,5.43
2023-05-05T18:18:18.172Z,2.95
2023-05-05T18:20:44.937Z,3.67
2023-05-05T18:23:13.042Z,4.70
2023-05-05T18:25:41.498Z,4.57
2023-05-05T18:28:10.175Z,2.30
2023-05-05T18:30:38.517Z,2.72
2023-05-05T18:33:05.812Z,1.65
2023-05-05T18:35:33.080Z,7.22
2023-05-05T18:38:01.140Z,2.88
2023-05-05T18:40:31.898Z,5.43
2023-05-05T18:43:00.707Z,5.68
2023-05-05T18:45:29.402Z,2.13
2023-05-05T18:47:56.529Z,4.30
2023-05-05T18:50:23.687Z,4.85
2023-05-05T18:52:51.655Z,1.70
2023-05-05T18:55:19.154Z,3.70
2023-05-05T19:00:27.229Z,2.55
2023-05-05T19:02:54.596Z,2.25
2023-05-05T19:05:24.075Z,4.07
2023-05-05T19:07:54.907Z,4.85
2023-05-05T19:10:24.146Z,7.60
2023-05-05T19:12:57.458Z,3.90
2023-05-05T19:15:24.803Z,3.67
2023-05-05T19:17:53.659Z,2.42
2023-05-05T19:20:22.357Z,5.95
2023-05-05T19:22:49.745Z,6.05
2023-05-05T19:25:19.554Z,3.72
2023-05-05T19:27:46.432Z,4.90
2023-05-05T19:30:13.634Z,5.82
2023-05-05T19:32:42.338Z,2.90
2023-05-05T19:35:12.139Z,5.50
2023-05-05T19:37:40.087Z,2.67
2023-05-05T19:40:08.553Z,21.02
2023-05-05T19:42:43.067Z,5.03
2023-05-05T19:45:26.947Z,2.80
2023-05-05T19:47:53.976Z,3.65
2023-05-05T19:50:21.544Z,5.60
2023-05-05T19:52:48.711Z,2.25
2023-05-05T19:55:16.209Z,4.03
2023-05-05T19:57:45.309Z,2.45
2023-05-05T20:00:13.400Z,2.95
2023-05-05T20:02:45.697Z,4.63
2023-05-05T20:05:17.668Z,7.18
2023-05-05T20:07:47.029Z,3.38
2023-05-05T20:10:14.833Z,4.53
2023-05-05T20:12:48.532Z,5.10
2023-05-05T20:15:18.927Z,2.95
2023-05-05T20:17:49.120Z,3.67
2023-05-05T20:20:18.840Z,7.00
2023-05-05T20:22:46.647Z,8.45
2023-05-05T20:25:17.152Z,5.28
2023-05-05T20:27:45.769Z,5.23
2023-05-05T20:30:13.181Z,5.20
2023-05-05T20:32:41.193Z,7.07
2023-05-05T20:35:08.846Z,8.18
2023-05-05T20:37:35.745Z,5.65
2023-05-05T20:40:02.679Z,8.07
2023-05-05T20:42:30.480Z,5.30
2023-05-05T20:44:58.745Z,7.70
2023-05-05T20:47:27.081Z,7.65
2023-05-05T20:49:54.753Z,10.27
2023-05-05T20:52:23.072Z,7.80
2023-05-05T20:54:50.963Z,8.27
2023-05-05T20:57:18.024Z,9.35
2023-05-05T20:59:45.101Z,7.45
2023-05-05T21:02:12.213Z,6.47
2023-05-05T21:04:40.588Z,7.03
2023-05-05T21:07:10.557Z,10.18
2023-05-05T21:09:40.046Z,7.25
2023-05-05T21:12:07.288Z,9.00
2023-05-05T21:14:34.169Z,10.52
2023-05-05T21:17:01.263Z,9.77
2023-05-05T21:19:28.104Z,8.38
2023-05-05T21:21:59.185Z,9.10
2023-05-05T21:24:27.734Z,8.25
2023-05-05T21:26:56.385Z,13.63
2023-05-05T21:29:24.776Z,8.80
2023-05-05T21:31:52.021Z,8.85
2023-05-05T21:34:22.069Z,7.10
2023-05-05T21:36:48.927Z,9.40
2023-05-05T21:39:15.913Z,9.40
2023-05-05T21:41:44.461Z,8.77
2023-05-05T21:44:11.338Z,11.05
2023-05-05T21:46:38.643Z,9.90
2023-05-05T21:49:14.028Z,9.88
2023-05-05T21:51:42.078Z,11.13
2023-05-05T21:54:11.529Z,9.77
2023-05-05T21:56:43.791Z,11.65
2023-05-05T21:59:11.225Z,9.65
2023-05-05T22:01:38.235Z,11.77
2023-05-05T22:04:05.451Z,15.68
2023-05-05T22:06:32.764Z,15.05
2023-05-05T22:08:59.795Z,11.82
2023-05-05T22:11:26.740Z,14.55
2023-05-05T22:13:54.407Z,10.50
2023-05-05T22:16:21.315Z,12.40
2023-05-05T22:18:48.528Z,10.05
2023-05-05T22:21:15.677Z,9.77
2023-05-05T22:23:42.564Z,8.57
2023-05-05T22:26:10.438Z,9.60
2023-05-05T22:28:38.392Z,12.73
2023-05-05T22:31:05.548Z,11.85
2023-05-05T22:33:33.147Z,14.02
2023-05-05T22:36:00.035Z,13.50
2023-05-05T22:38:27.023Z,11.13
2023-05-05T22:40:53.833Z,20.10
2023-05-05T22:43:20.810Z,12.82
2023-05-05T22:45:47.920Z,12.18
2023-05-05T22:48:15.122Z,13.75
2023-05-05T22:50:43.360Z,20.40
2023-05-05T22:53:16.971Z,13.48
2023-05-05T22:55:43.846Z,12.68
2023-05-05T22:58:11.140Z,14.07
2023-05-05T23:00:37.986Z,12.88
2023-05-05T23:03:04.985Z,12.65
2023-05-05T23:05:32.068Z,17.48
2023-05-05T23:08:01.648Z,14.68
2023-05-05T23:10:29.296Z,19.10
2023-05-05T23:12:58.324Z,18.75
2023-05-05T23:15:25.794Z,13.88
2023-05-05T23:17:53.002Z,15.05
2023-05-05T23:20:23.887Z,14.45
2023-05-05T23:22:53.752Z,16.88
2023-05-05T23:25:21.166Z,14.48
2023-05-05T23:27:51.402Z,12.77
2023-05-05T23:30:18.880Z,17.33
2023-05-05T23:32:46.112Z,14.30
2023-05-05T23:35:13.494Z,19.08
2023-05-05T23:37:42.297Z,13.30
2023-05-05T23:40:10.516Z,16.40
2023-05-05T23:42:37.402Z,16.45
2023-05-05T23:45:08.706Z,14.57
2023-05-05T23:47:35.997Z,15.40
2023-05-05T23:50:03.639Z,15.65
2023-05-05T23:52:30.554Z,14.60
2023-05-05T23:54:57.455Z,20.27
2023-05-05T23:57:24.266Z,19.77
2023-05-05T23:59:51.449Z,14.30
